Time;durP1;ratioP1;P1;durP2;ratioP2;P2;SDS_P1;SDS_P2;PMS_P1;PMS_P2;Temp;Humidity;BMP_temperature;BMP_pressure;BME280_temperature;BME280_humidity;BME280_pressure;Samples;Min_cycle;Max_cycle;Signal;HPM_P1;HPM_P2
2023/06/19 00:00:36;;;;;;;5.43;3.40;;;;;;;-143.84;83.83;45056.69;5089598;28;20517;-56
2023/06/19 00:03:03;;;;;;;4.47;3.50;;;;;;;-143.84;84.13;45052.88;5089581;28;20455;-56
2023/06/19 00:05:30;;;;;;;8.90;4.00;;;;;;;-143.84;84.14;45068.13;5089801;28;20479;-56
2023/06/19 00:07:57;;;;;;;6.80;3.60;;;;;;;-143.84;84.46;45054.78;5089459;28;20965;-56
2023/06/19 00:10:25;;;;;;;9.27;4.20;;;;;;;-143.84;84.68;45054.78;5089479;28;20494;-56
2023/06/19 00:12:53;;;;;;;7.73;3.40;;;;;;;-143.84;84.93;45068.13;5089360;28;20433;-56
2023/06/19 00:15:20;;;;;;;6.20;3.37;;;;;;;-143.84;84.77;45073.81;5089151;28;20460;-56
2023/06/19 00:17:48;;;;;;;4.93;2.93;;;;;;;-143.84;85.12;45070.00;5089438;28;20949;-56
2023/06/19 00:20:15;;;;;;;4.33;3.40;;;;;;;-143.84;85.20;45037.66;5089675;28;20444;-56
2023/06/19 00:22:42;;;;;;;10.73;3.90;;;;;;;-143.84;85.19;45045.25;5089516;28;20494;-56
2023/06/19 00:25:09;;;;;;;4.80;3.50;;;;;;;-143.84;85.08;45062.41;5089200;28;20529;-56
2023/06/19 00:27:36;;;;;;;5.97;4.17;;;;;;;-143.84;85.37;45033.84;5089467;28;20451;-56
2023/06/19 00:30:08;;;;;;;9.90;4.50;;;;;;;-143.84;85.45;45033.84;5089280;28;20512;-57
2023/06/19 00:32:46;;;;;;;9.13;4.63;;;;;;;-143.84;85.68;45037.66;5089528;28;20433;-56
2023/06/19 00:35:14;;;;;;;6.03;3.93;;;;;;;-143.84;85.49;45039.53;5089331;28;20451;-56
2023/06/19 00:37:44;;;;;;;5.10;4.57;;;;;;;-143.84;85.63;45041.44;5089264;28;20436;-56
2023/06/19 00:40:17;;;;;;;5.57;3.73;;;;;;;-143.84;85.75;45052.88;5089430;28;20437;-56
2023/06/19 00:42:44;;;;;;;5.13;4.73;;;;;;;-143.84;85.88;45058.59;5089022;28;20462;-56
2023/06/19 00:45:13;;;;;;;6.13;4.57;;;;;;;-143.84;85.73;45039.53;5092039;28;20480;-57
2023/06/19 00:47:40;;;;;;;6.80;4.60;;;;;;;-143.84;85.77;45037.66;5093665;28;20448;-56
2023/06/19 00:50:08;;;;;;;6.53;4.47;;;;;;;-143.84;85.75;45037.66;5093551;28;20482;-56
2023/06/19 00:52:35;;;;;;;15.10;4.93;;;;;;;-143.84;85.83;45020.50;5093173;28;20444;-57
2023/06/19 00:55:03;;;;;;;8.23;5.03;;;;;;;-143.84;85.80;45064.31;5093198;28;20456;-57
2023/06/19 00:57:31;;;;;;;5.50;5.00;;;;;;;-143.84;85.73;45049.06;5093559;28;20808;-57
2023/06/19 00:59:58;;;;;;;7.60;5.10;;;;;;;-143.84;85.77;45062.41;5093205;28;20991;-56
2023/06/19 01:02:27;;;;;;;7.17;5.07;;;;;;;-143.84;85.57;45066.22;5093195;28;20447;-56
2023/06/19 01:04:55;;;;;;;7.17;5.77;;;;;;;-143.84;85.68;45045.25;5092863;28;20444;-56
2023/06/19 01:07:30;;;;;;;7.40;5.50;;;;;;;-143.84;85.88;45014.78;5093003;28;20495;-56
2023/06/19 01:10:02;;;;;;;6.60;5.00;;;;;;;-143.84;85.52;45050.97;5092959;28;20496;-56
2023/06/19 01:12:35;;;;;;;12.57;5.20;;;;;;;-143.84;85.31;45026.22;5092952;28;20455;-57
2023/06/19 01:15:05;;;;;;;9.03;5.70;;;;;;;-143.84;85.46;45041.44;5092560;28;20436;-56
2023/06/19 01:17:36;;;;;;;16.53;5.80;;;;;;;-143.84;85.74;45033.84;5091245;28;20484;-56
2023/06/19 01:20:10;;;;;;;12.70;5.10;;;;;;;-143.84;85.97;45041.44;5091386;28;20521;-56
2023/06/19 01:22:39;;;;;;;8.70;4.70;;;;;;;-143.84;86.16;45050.97;5092064;28;20447;-56
2023/06/19 01:25:07;;;;;;;6.40;5.30;;;;;;;-143.84;86.48;45058.59;5092032;28;20992;-56
2023/06/19 01:27:34;;;;;;;12.30;5.47;;;;;;;-143.84;86.63;45020.50;5091658;28;20447;-56
2023/06/19 01:30:04;;;;;;;6.90;5.37;;;;;;;-143.84;86.82;45041.44;5092231;28;20440;-56
2023/06/19 01:32:38;;;;;;;6.50;5.60;;;;;;;-143.84;87.29;45037.66;5092351;28;20497;-56
2023/06/19 01:35:08;;;;;;;8.87;5.10;;;;;;;-143.84;87.30;45010.97;5092252;28;20440;-56
2023/06/19 01:37:37;;;;;;;13.83;5.93;;;;;;;-143.84;87.62;45030.03;5092559;28;20443;-56
2023/06/19 01:40:10;;;;;;;12.33;5.40;;;;;;;-143.84;87.46;45039.53;5092261;28;20497;-56
2023/06/19 01:42:39;;;;;;;10.43;5.43;;;;;;;-143.84;87.71;45001.47;5092424;28;20524;-56
2023/06/19 01:45:09;;;;;;;10.67;5.60;;;;;;;-143.84;88.05;45012.88;5092174;28;20923;-56
2023/06/19 01:47:36;;;;;;;10.40;5.87;;;;;;;-143.84;88.18;45026.22;5092154;28;20449;-56
2023/06/19 01:50:04;;;;;;;9.30;6.60;;;;;;;-143.84;88.24;45007.19;5092160;28;20456;-56
2023/06/19 01:52:31;;;;;;;15.83;6.27;;;;;;;-143.84;88.45;44995.75;5092167;28;20464;-56
2023/06/19 01:54:58;;;;;;;6.77;5.63;;;;;;;-143.84;88.58;45018.59;5092300;28;20432;-57
2023/06/19 01:57:27;;;;;;;8.30;6.23;;;;;;;-143.84;88.79;45030.03;5091187;28;20957;-56
2023/06/19 01:59:54;;;;;;;14.53;7.00;;;;;;;-143.84;88.93;45009.09;5092049;28;21169;-56
2023/06/19 02:02:21;;;;;;;15.40;6.67;;;;;;;-143.84;89.05;45009.09;5091965;28;20506;-57
2023/06/19 02:04:48;;;;;;;11.63;7.10;;;;;;;-143.84;89.31;44986.22;5091997;28;20448;-56
2023/06/19 02:07:15;;;;;;;8.40;6.77;;;;;;;-143.84;89.33;45018.59;5091585;28;20535;-56
2023/06/19 02:09:42;;;;;;;13.43;7.23;;;;;;;-143.84;89.63;44982.41;5091635;28;20490;-56
2023/06/19 02:12:10;;;;;;;9.93;6.73;;;;;;;-143.84;89.68;44969.09;5091566;28;20808;-56
2023/06/19 02:14:38;;;;;;;8.97;8.07;;;;;;;-143.84;89.87;44974.81;5091551;28;20440;-56
2023/06/19 02:17:06;;;;;;;20.83;7.20;;;;;;;-143.84;89.96;44978.63;5091309;28;20549;-56
2023/06/19 02:19:33;;;;;;;10.77;7.07;;;;;;;-143.84;89.84;44944.34;5091382;28;20962;-56
2023/06/19 02:22:00;;;;;;;9.07;7.53;;;;;;;-143.84;90.23;44972.91;5091626;28;20938;-56
2023/06/19 02:24:27;;;;;;;8.20;7.10;;;;;;;-143.84;90.37;44957.66;5091351;28;20456;-57
2023/06/19 02:26:54;;;;;;;9.10;8.20;;;;;;;-143.84;90.35;44986.22;5091433;28;20472;-56
2023/06/19 02:29:21;;;;;;;8.13;7.33;;;;;;;-143.84;90.58;44931.00;5091351;28;21094;-56
2023/06/19 02:31:50;;;;;;;8.47;7.67;;;;;;;-143.84;90.64;44931.00;5091004;28;20444;-56
2023/06/19 02:34:17;;;;;;;17.40;8.30;;;;;;;-143.84;90.85;44932.91;5091263;28;20529;-56
2023/06/19 02:36:47;;;;;;;9.90;7.67;;;;;;;-143.84;90.83;44936.72;5091065;28;20448;-57
2023/06/19 02:39:14;;;;;;;11.80;8.47;;;;;;;-143.84;90.76;44961.47;5091204;28;21196;-56
2023/06/19 02:41:43;;;;;;;8.50;7.67;;;;;;;-143.84;90.61;44919.59;5091230;28;20429;-56
2023/06/19 02:44:10;;;;;;;8.80;7.77;;;;;;;-143.84;91.08;44931.00;5091095;28;20981;-56
2023/06/19 02:46:37;;;;;;;11.67;7.90;;;;;;;-143.84;91.02;44944.34;5091033;28;20483;-56
2023/06/19 02:49:05;;;;;;;14.40;8.70;;;;;;;-143.84;90.99;44908.16;5091018;28;20498;-56
2023/06/19 02:51:33;;;;;;;18.80;8.60;;;;;;;-143.84;90.83;44946.25;5090776;28;20500;-56
2023/06/19 02:54:00;;;;;;;11.70;7.73;;;;;;;-143.84;90.73;44919.59;5090797;28;20444;-56
2023/06/19 02:56:28;;;;;;;11.37;9.33;;;;;;;-143.84;90.75;44934.81;5090964;28;20440;-56
2023/06/19 02:58:55;;;;;;;13.07;8.27;;;;;;;-143.84;90.81;44915.78;5090709;28;20480;-56
2023/06/19 03:01:22;;;;;;;15.70;9.60;;;;;;;-143.84;91.40;44904.34;5090861;28;20440;-56
2023/06/19 03:03:52;;;;;;;12.53;8.97;;;;;;;-143.84;91.33;44910.06;5090780;28;20437;-56
2023/06/19 03:06:20;;;;;;;11.90;8.80;;;;;;;-143.84;91.35;44894.84;5090441;28;20483;-56
2023/06/19 03:08:47;;;;;;;18.80;9.50;;;;;;;-143.84;91.37;44873.88;5089765;28;20447;-56
2023/06/19 03:11:14;;;;;;;15.03;8.43;;;;;;;-143.84;91.48;44908.16;5090509;28;20443;-57
2023/06/19 03:13:47;;;;;;;18.50;9.37;;;;;;;-143.84;91.58;44900.53;5090369;28;20445;-56
2023/06/19 03:16:15;;;;;;;14.30;9.40;;;;;;;-143.84;91.33;44898.66;5090344;28;20562;-56
2023/06/19 03:18:42;;;;;;;13.70;10.07;;;;;;;-143.84;91.32;44883.41;5090548;28;20448;-56
2023/06/19 03:21:09;;;;;;;14.47;9.90;;;;;;;-143.84;91.43;44870.09;5090410;28;20519;-57
2023/06/19 03:23:38;;;;;;;12.10;9.17;;;;;;;-143.84;91.02;44906.25;5090399;28;20447;-56
2023/06/19 03:26:05;;;;;;;12.40;10.07;;;;;;;-143.84;91.19;44889.13;5090335;28;20890;-57
2023/06/19 03:28:32;;;;;;;15.47;9.20;;;;;;;-143.84;90.88;44910.06;5090264;28;20464;-56
2023/06/19 03:31:00;;;;;;;15.20;9.67;;;;;;;-143.84;90.78;44923.41;5090078;28;20848;-56
2023/06/19 03:33:27;;;;;;;12.77;10.70;;;;;;;-143.84;90.51;44919.59;5090196;28;20444;-56
2023/06/19 03:35:54;;;;;;;18.33;11.93;;;;;;;-143.84;90.01;44927.19;5090194;28;20436;-56
2023/06/19 03:38:22;;;;;;;18.27;10.60;;;;;;;-143.84;89.92;44932.91;5089658;28;20445;-56
2023/06/19 03:40:50;;;;;;;14.13;10.60;;;;;;;-143.84;89.87;44948.16;5089929;28;20484;-56
2023/06/19 03:43:17;;;;;;;12.77;10.50;;;;;;;-143.84;89.69;44931.00;5090272;28;21184;-57
2023/06/19 03:45:44;;;;;;;17.83;10.63;;;;;;;-143.84;89.48;44982.41;5089833;28;20448;-56
2023/06/19 03:48:11;;;;;;;13.90;10.20;;;;;;;-143.84;89.21;45003.38;5089953;28;20596;-56
2023/06/19 03:50:39;;;;;;;15.20;11.23;;;;;;;-143.84;89.18;44988.13;5090104;28;20509;-56
2023/06/19 03:53:06;;;;;;;15.67;10.90;;;;;;;-143.84;89.21;44957.66;5089872;28;21231;-57
2023/06/19 03:55:33;;;;;;;18.43;11.63;;;;;;;-143.84;88.93;44969.09;5089846;28;20432;-56
2023/06/19 03:58:02;;;;;;;12.80;10.43;;;;;;;-143.84;89.04;44980.53;5089861;28;20451;-56
2023/06/19 04:00:29;;;;;;;25.07;11.70;;;;;;;-143.84;89.04;44965.28;5089662;28;20549;-56
2023/06/19 04:02:57;;;;;;;15.63;10.77;;;;;;;-143.84;88.78;44984.31;5089741;28;20876;-56
2023/06/19 04:05:24;;;;;;;17.43;11.33;;;;;;;-143.84;88.93;45001.47;5089437;28;20542;-56
2023/06/19 04:07:51;;;;;;;23.60;11.30;;;;;;;-143.84;88.83;45016.69;5089390;28;20574;-56
2023/06/19 04:10:18;;;;;;;24.43;11.70;;;;;;;-143.84;88.79;44959.56;5089543;28;20494;-56
2023/06/19 04:12:47;;;;;;;13.87;10.27;;;;;;;-143.84;88.59;44976.72;5089383;28;20440;-56
2023/06/19 04:15:16;;;;;;;18.57;11.67;;;;;;;-143.84;87.88;45026.22;5089189;28;20968;-56
2023/06/19 04:17:43;;;;;;;13.07;11.03;;;;;;;-143.84;87.98;45009.09;5089222;28;20436;-56
2023/06/19 04:20:12;;;;;;;15.50;10.80;;;;;;;-143.84;87.42;45012.88;5089043;28;20445;-56
2023/06/19 04:22:39;;;;;;;12.93;10.73;;;;;;;-143.84;87.48;45050.97;5089256;28;20493;-56
2023/06/19 04:25:08;;;;;;;19.97;10.90;;;;;;;-143.84;87.56;45022.41;5089274;28;20445;-56
2023/06/19 04:27:35;;;;;;;10.23;9.17;;;;;;;-143.84;87.19;45045.25;5089310;28;20567;-56
2023/06/19 04:30:06;;;;;;;15.20;10.57;;;;;;;-143.84;87.03;45037.66;5089243;28;20436;-57
2023/06/19 04:32:35;;;;;;;11.47;9.37;;;;;;;-143.84;86.82;45071.91;5089297;28;20443;-56
2023/06/19 04:35:03;;;;;;;10.83;9.37;;;;;;;-143.84;86.98;45031.94;5089232;28;20451;-56
2023/06/19 04:37:30;;;;;;;13.27;8.97;;;;;;;-143.84;86.61;45026.22;5089181;28;20444;-56
2023/06/19 04:39:57;;;;;;;10.43;9.20;;;;;;;-143.84;86.37;45071.91;5089183;28;20436;-56
2023/06/19 04:42:24;;;;;;;11.50;8.60;;;;;;;-143.84;85.59;45058.59;5089564;28;20502;-56
2023/06/19 04:44:51;;;;;;;11.27;9.27;;;;;;;-143.84;86.19;45041.44;5089506;28;20527;-56
2023/06/19 04:47:21;;;;;;;13.27;8.23;;;;;;;-143.84;86.46;45068.13;5079615;28;20528;-56
2023/06/19 04:49:49;;;;;;;8.03;7.30;;;;;;;-143.84;86.12;45037.66;5083036;28;20436;-56
2023/06/19 04:52:18;;;;;;;10.03;7.47;;;;;;;-143.84;86.05;45056.69;5088851;28;20494;-56
2023/06/19 04:54:48;;;;;;;8.80;7.90;;;;;;;-143.84;86.15;45022.41;5089132;28;20528;-57
2023/06/19 04:57:15;;;;;;;9.80;7.30;;;;;;;-143.84;86.11;45056.69;5089097;28;20458;-56
2023/06/19 04:59:43;;;;;;;10.10;7.63;;;;;;;-143.84;86.08;45049.06;5089301;28;20451;-57
2023/06/19 05:02:11;;;;;;;11.13;7.50;;;;;;;-143.84;86.00;45066.22;5089193;28;20484;-56
2023/06/19 05:04:38;;;;;;;10.03;7.47;;;;;;;-143.84;86.01;45033.84;5089268;28;20494;-56
2023/06/19 05:07:07;;;;;;;9.33;7.30;;;;;;;-143.84;85.91;45081.44;5089000;28;20476;-56
2023/06/19 05:09:34;;;;;;;8.00;6.60;;;;;;;-143.84;85.97;45041.44;5089392;28;20444;-56
2023/06/19 05:12:01;;;;;;;9.33;5.90;;;;;;;-143.84;85.47;45049.06;5089054;28;20441;-56
2023/06/19 05:14:28;;;;;;;11.73;7.00;;;;;;;-143.84;85.18;45075.72;5089761;28;20440;-56
2023/06/19 05:16:55;;;;;;;7.00;6.20;;;;;;;-143.84;84.88;45064.31;5088962;28;21055;-56
2023/06/19 05:19:22;;;;;;;9.17;5.97;;;;;;;-143.84;84.47;45083.34;5088567;28;20448;-56
2023/06/19 05:21:49;;;;;;;10.20;6.00;;;;;;;-143.84;83.82;45071.91;5088896;28;20438;-56
2023/06/19 05:24:18;;;;;;;6.10;5.50;;;;;;;-143.84;83.52;45094.78;5088762;28;21336;-56
2023/06/19 05:26:45;;;;;;;5.53;5.00;;;;;;;-143.84;82.77;45083.34;5088936;28;20488;-56
2023/06/19 05:29:12;;;;;;;6.63;4.60;;;;;;;-143.84;82.24;45068.13;5088983;28;20490;-56
2023/06/19 05:31:39;;;;;;;7.50;4.37;;;;;;;-143.84;80.89;45075.72;5090293;28;20452;-56
2023/06/19 05:34:06;;;;;;;4.23;3.50;;;;;;;-143.84;80.34;45075.72;5092520;28;20857;-57
2023/06/19 05:36:34;;;;;;;6.03;4.03;;;;;;;-143.84;79.44;45092.88;5092824;28;20470;-56
2023/06/19 05:39:01;;;;;;;3.77;3.57;;;;;;;-143.84;78.69;45110.00;5092080;28;20448;-56
2023/06/19 05:41:30;;;;;;;3.43;3.20;;;;;;;-143.84;77.73;45090.97;5092194;28;20988;-56
2023/06/19 05:43:58;;;;;;;8.97;3.47;;;;;;;-143.84;77.12;45087.16;5092223;28;20448;-56
2023/06/19 05:46:25;;;;;;;3.50;3.10;;;;;;;-143.84;76.55;45073.81;5092378;28;20437;-56
2023/06/19 05:48:54;;;;;;;10.07;3.50;;;;;;;-143.84;76.00;45087.16;5091959;28;20492;-56
2023/06/19 05:51:21;;;;;;;2.93;2.73;;;;;;;-143.84;74.79;45108.09;5091944;28;20441;-56
2023/06/19 05:53:49;;;;;;;3.80;3.00;;;;;;;-143.84;74.67;45089.06;5091571;28;20455;-56
2023/06/19 05:56:16;;;;;;;3.33;3.03;;;;;;;-143.84;74.24;45090.97;5091659;28;20468;-56
2023/06/19 05:58:45;;;;;;;3.83;2.83;;;;;;;-143.84;73.74;45070.00;5091801;28;20471;-56
2023/06/19 06:01:12;;;;;;;6.53;3.27;;;;;;;-143.84;72.63;45087.16;5091746;28;20444;-56
2023/06/19 06:03:39;;;;;;;5.83;3.30;;;;;;;-143.84;71.71;45094.78;5091783;28;20434;-56
2023/06/19 06:06:06;;;;;;;3.43;3.13;;;;;;;-143.84;72.18;45094.78;5091842;28;20449;-56
2023/06/19 06:08:34;;;;;;;17.07;3.30;;;;;;;-143.84;70.89;45102.38;5091548;28;20484;-56
2023/06/19 06:11:01;;;;;;;9.43;3.03;;;;;;;-143.84;70.37;45098.56;5091566;28;20445;-56
2023/06/19 06:13:28;;;;;;;11.50;2.47;;;;;;;-143.84;70.17;45096.66;5091594;28;21049;-56
2023/06/19 06:15:57;;;;;;;2.50;2.30;;;;;;;-143.84;70.43;45094.78;5091355;28;20530;-56
2023/06/19 06:18:24;;;;;;;3.67;2.83;;;;;;;-143.84;69.35;45071.91;5091447;28;20453;-56
2023/06/19 06:20:51;;;;;;;3.40;3.20;;;;;;;-143.84;69.13;45102.38;5091903;28;20430;-56
2023/06/19 06:23:18;;;;;;;3.87;3.10;;;;;;;-143.84;69.10;45108.09;5091571;28;20865;-56
2023/06/19 06:25:45;;;;;;;3.07;2.83;;;;;;;-143.84;68.35;45083.34;5090951;28;20925;-56
2023/06/19 06:28:12;;;;;;;5.13;3.30;;;;;;;-143.84;67.99;45035.75;5091089;28;20575;-56
2023/06/19 06:30:40;;;;;;;6.00;3.10;;;;;;;-143.84;67.83;45092.88;5091041;28;20847;-56
2023/06/19 06:33:08;;;;;;;6.33;2.90;;;;;;;-143.84;67.98;45056.69;5091354;28;20473;-56
2023/06/19 06:35:36;;;;;;;2.47;2.27;;;;;;;-143.84;67.30;45092.88;5091211;28;20460;-56
2023/06/19 06:38:03;;;;;;;5.83;2.30;;;;;;;-143.84;65.66;45066.22;5091176;28;20433;-56
2023/06/19 06:40:30;;;;;;;3.77;2.80;;;;;;;-143.84;65.50;45081.44;5091170;28;20520;-56
2023/06/19 06:42:57;;;;;;;7.93;2.70;;;;;;;-143.84;65.24;45102.38;5090890;28;20493;-56
2023/06/19 06:45:25;;;;;;;5.20;3.03;;;;;;;-143.84;65.28;45064.31;5090997;28;20446;-56
2023/06/19 06:47:52;;;;;;;7.10;3.27;;;;;;;-143.84;64.53;45073.81;5090899;28;20489;-56
2023/06/19 06:50:21;;;;;;;9.23;3.30;;;;;;;-143.84;64.57;45077.63;5090805;28;20446;-56
2023/06/19 06:52:48;;;;;;;4.50;2.57;;;;;;;-143.84;63.36;45071.91;5090635;28;21009;-56
2023/06/19 06:55:15;;;;;;;12.33;3.07;;;;;;;-143.84;62.14;45083.34;5090895;28;20439;-56
2023/06/19 06:57:42;;;;;;;5.67;3.63;;;;;;;-143.84;63.38;45089.06;5090710;28;20507;-56
2023/06/19 07:00:11;;;;;;;2.90;2.70;;;;;;;-143.84;62.51;45071.91;5090869;28;20440;-56
2023/06/19 07:02:39;;;;;;;10.10;3.70;;;;;;;-143.84;61.32;45052.88;5090763;28;20459;-56
2023/06/19 07:05:08;;;;;;;6.30;3.23;;;;;;;-143.84;61.38;45064.31;5090653;28;20534;-56
2023/06/19 07:07:37;;;;;;;7.00;2.97;;;;;;;-143.84;61.08;45096.66;5090359;28;20484;-56
2023/06/19 07:10:04;;;;;;;5.83;3.13;;;;;;;-143.84;60.11;45050.97;5090331;28;20512;-56
2023/06/19 07:12:31;;;;;;;5.50;3.50;;;;;;;-143.84;58.59;45056.69;5090542;28;20477;-56
2023/06/19 07:14:58;;;;;;;4.53;2.83;;;;;;;-143.84;57.59;45090.97;5090553;28;20443;-56
2023/06/19 07:51:25;;;;;;;5.50;2.90;;;;;;;-143.84;50.96;44993.84;4815260;29;20568;-54
2023/06/19 08:03:37;;;;;;;5.97;2.83;;;;;;;-143.84;50.29;45062.41;4998851;28;20568;-54
2023/06/19 08:06:23;;;;;;;3.57;3.20;;;;;;;-143.84;50.01;45035.75;5089087;28;20456;-54
2023/06/19 08:12:07;;;;;;;3.40;3.07;;;;;;;-143.84;51.52;45026.22;5076495;28;20523;-54
2023/06/19 08:14:43;;;;;;;3.40;3.10;;;;;;;-143.84;50.24;45050.97;5089130;28;20852;-54
2023/06/19 08:36:23;;;;;;;3.90;3.23;;;;;;;-143.84;53.72;45041.44;4871935;29;20446;-54
2023/06/19 08:47:46;;;;;;;3.50;3.20;;;;;;;-143.84;55.70;45056.69;4875311;29;20502;-53
2023/06/19 08:50:14;;;;;;;2.90;2.70;;;;;;;-143.84;55.51;45045.25;4985079;28;20444;-55
2023/06/19 08:52:41;;;;;;;6.13;3.67;;;;;;;-143.84;56.01;45043.34;5089180;28;20512;-54
2023/06/19 08:55:10;;;;;;;3.23;2.90;;;;;;;-143.84;55.49;45062.41;5088735;28;20444;-55
2023/06/19 08:57:39;;;;;;;3.40;3.03;;;;;;;-143.84;55.50;45052.88;5088704;28;21009;-55
2023/06/19 09:00:08;;;;;;;3.40;3.20;;;;;;;-143.84;54.59;45033.84;5088692;28;20930;-55
2023/06/19 09:02:40;;;;;;;3.40;3.20;;;;;;;-143.84;55.18;45043.34;5088668;28;20526;-55
2023/06/19 09:05:15;;;;;;;7.63;3.77;;;;;;;-143.84;53.96;45052.88;5088823;28;21232;-55
2023/06/19 09:07:43;;;;;;;3.30;3.10;;;;;;;-143.84;52.89;45041.44;5091897;28;20490;-55
2023/06/19 09:10:18;;;;;;;3.57;3.27;;;;;;;-143.84;53.12;45041.44;5092664;28;20444;-55
2023/06/19 09:12:45;;;;;;;2.90;2.70;;;;;;;-143.84;52.41;45047.16;5092632;28;20439;-55
2023/06/19 09:15:16;;;;;;;4.80;2.60;;;;;;;-143.84;50.70;45041.44;5092348;28;20455;-54
2023/06/19 09:17:44;;;;;;;3.50;3.20;;;;;;;-143.84;50.83;45043.34;5092355;28;21236;-54
2023/06/19 09:20:11;;;;;;;3.20;2.83;;;;;;;-143.84;50.88;45035.75;5092292;28;20493;-54
2023/06/19 09:22:40;;;;;;;3.33;3.13;;;;;;;-143.84;50.45;45049.06;5092207;28;20447;-54
2023/06/19 09:25:10;;;;;;;3.23;2.70;;;;;;;-143.84;49.80;45030.03;5092279;28;20446;-54
2023/06/19 09:27:37;;;;;;;3.70;3.00;;;;;;;-143.84;49.54;45047.16;5092270;28;20534;-54
2023/06/19 09:30:07;;;;;;;3.60;3.30;;;;;;;-143.84;50.34;45056.69;5092233;28;20810;-54
2023/06/19 09:32:36;;;;;;;3.20;2.90;;;;;;;-143.84;50.33;45050.97;5092284;28;20656;-54
2023/06/19 09:35:04;;;;;;;6.03;2.80;;;;;;;-143.84;50.24;45052.88;5091884;28;20534;-54
2023/06/19 09:37:31;;;;;;;5.00;2.87;;;;;;;-143.84;50.84;45045.25;5071908;28;20453;-54
2023/06/19 09:40:06;;;;;;;3.43;3.13;;;;;;;-143.84;51.96;45041.44;5071762;28;20439;-54
2023/06/19 09:42:36;;;;;;;2.70;2.47;;;;;;;-143.84;51.28;45024.31;5071906;28;20474;-54
2023/06/19 09:45:05;;;;;;;2.47;2.37;;;;;;;-143.84;51.21;45056.69;5071646;28;20434;-54
2023/06/19 09:47:34;;;;;;;3.03;2.83;;;;;;;-143.84;50.32;45045.25;5071603;28;20440;-54
2023/06/19 09:50:03;;;;;;;4.60;3.13;;;;;;;-143.84;50.05;45054.78;5071621;28;20474;-55
2023/06/19 09:52:30;;;;;;;2.37;2.27;;;;;;;-143.84;49.02;45045.25;5071292;28;20459;-55
2023/06/19 09:55:02;;;;;;;2.97;2.70;;;;;;;-143.84;49.01;45047.16;5071043;28;20432;-55
2023/06/19 09:57:30;;;;;;;2.37;2.17;;;;;;;-143.84;48.70;45037.66;5071553;28;21197;-55
2023/06/19 10:00:07;;;;;;;2.37;2.27;;;;;;;-143.84;48.85;45064.31;5071667;28;20453;-55
2023/06/19 10:02:34;;;;;;;2.70;2.50;;;;;;;-143.84;48.71;45064.31;5071364;28;20448;-54
2023/06/19 10:05:02;;;;;;;2.87;2.67;;;;;;;-143.84;49.28;45058.59;5071305;28;20443;-55
2023/06/19 10:07:36;;;;;;;3.43;2.40;;;;;;;-143.84;48.87;45054.78;5071274;28;20520;-54
2023/06/19 10:10:06;;;;;;;4.30;2.37;;;;;;;-143.84;49.37;45054.78;5071342;28;20492;-54
2023/06/19 10:12:38;;;;;;;3.73;2.73;;;;;;;-143.84;49.72;45062.41;5071206;28;20442;-55
2023/06/19 10:15:13;;;;;;;3.23;2.93;;;;;;;-143.84;50.63;45018.59;5071178;28;20445;-55
2023/06/19 10:20:42;;;;;;;5.47;2.33;;;;;;;-143.84;50.13;45052.88;5021763;28;20564;-54
2023/06/19 10:23:12;;;;;;;4.47;2.63;;;;;;;-143.84;50.59;45056.69;5070966;28;20443;-54
2023/06/19 10:25:43;;;;;;;4.17;2.63;;;;;;;-143.84;51.75;45068.13;5070233;28;20459;-55
2023/06/19 10:28:21;;;;;;;8.17;2.63;;;;;;;-143.84;52.23;45026.22;5070040;28;20492;-54
2023/06/19 10:30:54;;;;;;;7.77;2.83;;;;;;;-143.84;52.64;45033.84;5070226;28;20477;-55
2023/06/19 10:33:21;;;;;;;3.10;2.90;;;;;;;-143.84;51.99;45039.53;5070416;28;20498;-55
2023/06/19 10:35:49;;;;;;;2.63;2.50;;;;;;;-143.84;52.59;45052.88;5069936;28;20445;-54
2023/06/19 10:38:16;;;;;;;3.00;2.70;;;;;;;-143.84;51.20;45028.13;5070397;28;20453;-55
2023/06/19 10:40:46;;;;;;;3.63;3.30;;;;;;;-143.84;49.96;45033.84;5070598;28;20437;-55
2023/06/19 10:43:13;;;;;;;4.40;3.10;;;;;;;-143.84;48.95;45052.88;5070439;28;20513;-54
2023/06/19 10:45:40;;;;;;;3.33;3.03;;;;;;;-143.84;48.98;45003.38;5082890;28;20541;-54
2023/06/19 10:48:07;;;;;;;3.70;2.50;;;;;;;-143.84;48.71;45043.34;5090630;28;20489;-55
2023/06/19 10:50:42;;;;;;;6.93;2.37;;;;;;;-143.84;47.34;45012.88;5090763;28;20445;-54
2023/06/19 10:53:09;;;;;;;2.77;2.57;;;;;;;-143.84;48.53;45030.03;5090484;28;20492;-55
2023/06/19 10:55:36;;;;;;;10.80;3.00;;;;;;;-143.84;48.30;45045.25;5090766;28;20490;-55
2023/06/19 10:58:05;;;;;;;2.70;2.50;;;;;;;-143.84;46.02;45031.94;5090412;28;20474;-59
2023/06/19 11:00:34;;;;;;;2.73;2.53;;;;;;;-143.84;47.17;45014.78;5090316;28;20447;-59
2023/06/19 11:03:01;;;;;;;4.07;3.10;;;;;;;-143.84;47.23;45041.44;5090289;28;20524;-59
2023/06/19 11:05:29;;;;;;;3.20;2.93;;;;;;;-143.84;47.54;44995.75;5090374;28;20496;-59
2023/06/19 11:07:58;;;;;;;3.73;2.80;;;;;;;-143.84;48.29;45003.38;5090471;28;20479;-59
2023/06/19 11:10:27;;;;;;;2.90;2.67;;;;;;;-143.84;48.20;45033.84;5089956;28;20444;-59
2023/06/19 11:12:56;;;;;;;2.87;2.60;;;;;;;-143.84;47.63;44993.84;5090132;28;20845;-59
2023/06/19 11:15:31;;;;;;;2.97;2.77;;;;;;;-143.84;45.06;45005.28;5089286;28;20524;-59
2023/06/19 11:17:59;;;;;;;4.33;3.53;;;;;;;-143.84;44.33;45005.28;5090008;28;20446;-59
2023/06/19 11:20:26;;;;;;;4.33;2.90;;;;;;;-143.84;44.50;45012.88;5090186;28;20900;-59
2023/06/19 11:22:57;;;;;;;3.00;2.63;;;;;;;-143.84;45.65;45009.09;5090073;28;20528;-59
2023/06/19 11:25:26;;;;;;;3.40;2.67;;;;;;;-143.84;44.29;44990.03;5089810;28;20451;-59
2023/06/19 11:27:58;;;;;;;3.70;3.40;;;;;;;-143.84;44.35;44955.75;5089996;28;21321;-59
2023/06/19 11:30:33;;;;;;;3.10;2.70;;;;;;;-143.84;42.33;44991.94;5088955;28;20522;-59
2023/06/19 11:33:01;;;;;;;3.20;3.00;;;;;;;-143.84;40.84;44969.09;5089739;28;20478;-59
2023/06/19 11:35:36;;;;;;;3.30;2.90;;;;;;;-143.84;41.72;45003.38;5089726;28;20949;-59
2023/06/19 11:38:03;;;;;;;3.77;2.43;;;;;;;-143.84;41.93;44955.75;5089747;28;20438;-59
2023/06/19 11:40:39;;;;;;;3.10;2.30;;;;;;;-143.84;41.01;44984.31;5089609;28;20810;-58
2023/06/19 11:43:06;;;;;;;3.07;2.83;;;;;;;-143.84;41.09;44997.66;5089419;28;20498;-59
2023/06/19 11:45:45;;;;;;;3.07;2.57;;;;;;;-143.84;40.80;45009.09;5089499;28;20438;-59
2023/06/19 11:48:12;;;;;;;2.73;2.53;;;;;;;-143.84;40.53;44980.53;5089721;28;20447;-59
2023/06/19 11:50:39;;;;;;;3.00;2.70;;;;;;;-143.84;40.91;44999.56;5089573;28;20901;-59
2023/06/19 11:53:07;;;;;;;2.90;2.70;;;;;;;-143.84;41.51;44999.56;5088597;28;20499;-59
2023/06/19 11:55:34;;;;;;;3.70;3.40;;;;;;;-143.84;42.22;44984.31;5089307;28;20447;-58
2023/06/19 11:58:01;;;;;;;2.70;2.50;;;;;;;-143.84;42.20;45001.47;5088943;28;20450;-59
2023/06/19 12:00:28;;;;;;;6.40;3.17;;;;;;;-143.84;41.52;44988.13;5089662;28;21368;-59
2023/06/19 12:02:58;;;;;;;2.87;2.60;;;;;;;-143.84;42.60;44991.94;5089599;28;20452;-59
2023/06/19 12:05:25;;;;;;;3.00;2.80;;;;;;;-143.84;42.59;45014.78;5089286;28;20460;-58
2023/06/19 12:07:52;;;;;;;6.20;2.73;;;;;;;-143.84;43.66;45022.41;5089205;28;20497;-59
2023/06/19 12:10:19;;;;;;;2.50;2.30;;;;;;;-143.84;43.45;45010.97;5089443;28;20511;-59
2023/06/19 12:12:47;;;;;;;3.00;2.73;;;;;;;-143.84;42.54;44995.75;5089086;28;20443;-59
2023/06/19 12:15:14;;;;;;;3.43;2.50;;;;;;;-143.84;43.33;45001.47;5089308;28;20463;-58
2023/06/19 12:17:41;;;;;;;3.27;3.07;;;;;;;-143.84;42.83;44984.31;5089128;28;20503;-59
2023/06/19 12:20:11;;;;;;;6.00;3.00;;;;;;;-143.84;42.46;45001.47;5089186;28;20437;-59
2023/06/19 12:22:38;;;;;;;5.40;2.63;;;;;;;-143.84;42.42;45018.59;5089343;28;20506;-59
2023/06/19 12:25:06;;;;;;;2.73;2.53;;;;;;;-143.84;42.93;44995.75;5089007;28;20499;-58
2023/06/19 12:27:33;;;;;;;11.73;2.90;;;;;;;-143.84;42.42;44990.03;5089182;28;20444;-59
2023/06/19 12:30:00;;;;;;;2.90;2.70;;;;;;;-143.84;42.32;44976.72;5089264;28;20484;-59
2023/06/19 12:32:27;;;;;;;11.07;3.30;;;;;;;-143.84;42.79;44993.84;5089058;28;20485;-59
2023/06/19 12:34:54;;;;;;;2.93;2.73;;;;;;;-143.84;42.19;44969.09;5078375;28;21289;-58
2023/06/19 12:37:24;;;;;;;2.30;2.13;;;;;;;-143.84;40.74;44999.56;5070886;28;20567;-59